createdAt,value
2018-12-13T06:32:01.357Z,0.1
2018-12-13T06:34:01.086Z,0.2
2018-12-13T06:35:01.802Z,0.3
2018-12-13T06:37:01.227Z,0.4
2018-12-13T06:38:01.485Z,0.5
2018-12-13T06:40:01.086Z,0.6
2018-12-13T06:41:01.089Z,0.7
2018-12-13T06:42:01.266Z,0.8
2018-12-13T06:43:01.092Z,0.9
2018-12-13T06:44:01.061Z,1.1
2018-12-13T06:45:01.087Z,1.2
2018-12-13T06:46:01.056Z,1.3
2018-12-13T06:47:01.327Z,1.4
2018-12-13T06:48:01.137Z,1.5
2018-12-13T06:49:01.089Z,1.7
2018-12-13T06:50:01.088Z,1.8
2018-12-13T06:51:01.058Z,2.0
2018-12-13T06:52:01.266Z,2.2
2018-12-13T06:53:01.056Z,2.5
2018-12-13T06:54:01.060Z,2.7
2018-12-13T06:55:01.059Z,3.1
2018-12-13T06:56:01.243Z,3.5
2018-12-13T06:57:01.263Z,3.8
2018-12-13T06:58:01.096Z,4.3
2018-12-13T06:59:01.090Z,4.8
2018-12-13T07:00:01.101Z,5.5
2018-12-13T07:01:02.219Z,6.3
2018-12-13T07:02:01.326Z,7.2
2018-12-13T07:03:01.093Z,8.3
2018-12-13T07:04:01.095Z,9.5
2018-12-13T07:05:01.096Z,11.0
2018-12-13T07:06:01.092Z,12.8
2018-12-13T07:07:01.260Z,15.1
2018-12-13T07:08:07.593Z,18.0
2018-12-13T07:09:01.093Z,21.8
2018-12-13T07:10:01.098Z,26.1
2018-12-13T07:11:01.100Z,30.5
2018-12-13T07:12:01.300Z,35.5
2018-12-13T07:13:01.100Z,40.9
2018-12-13T07:14:01.096Z,47.5
2018-12-13T07:15:01.099Z,55.5
2018-12-13T07:16:01.098Z,64.3
2018-12-13T07:17:01.272Z,74.8
2018-12-13T07:18:01.099Z,90.1
2018-12-13T07:19:01.096Z,114.4
2018-12-13T07:20:01.095Z,148.5
2018-12-13T07:21:01.097Z,190.9
2018-12-13T07:22:02.356Z,240.7
2018-12-13T07:23:01.098Z,294.9
2018-12-13T07:24:01.068Z,354.5
2018-12-13T07:26:01.066Z,426.4
2018-12-13T07:27:01.222Z,504.0
2018-12-13T07:28:01.107Z,585.4
2018-12-13T07:29:01.083Z,669.5
2018-12-13T07:30:01.085Z,755.0
2018-12-13T07:31:02.054Z,841.8
2018-12-13T07:32:01.225Z,929.7
2018-12-13T07:33:01.107Z,1017.1
2018-12-13T07:34:01.082Z,1105.2
2018-12-13T07:35:01.497Z,1192.8
2018-12-13T07:36:01.083Z,1281.9
2018-12-13T07:37:01.231Z,1379.5
2018-12-13T07:38:01.113Z,1490.4
2018-12-13T07:39:01.088Z,1611.9
2018-12-13T07:40:01.089Z,1736.5
2018-12-13T07:41:01.088Z,1855.7
2018-12-13T07:42:01.233Z,1976.3
2018-12-13T07:43:01.209Z,2101.3
2018-12-13T07:44:01.088Z,2232.5
2018-12-13T07:45:01.996Z,2372.9
2018-12-13T07:46:01.089Z,2524.3
2018-12-13T07:47:01.228Z,2688.9
2018-12-13T07:48:02.059Z,2865.0
2018-12-13T07:49:01.088Z,3046.8
2018-12-13T07:50:01.055Z,3234.6
2018-12-13T07:51:01.069Z,3422.5
2018-12-13T07:52:01.305Z,3602.3
2018-12-13T07:53:01.093Z,3772.7
2018-12-13T07:54:06.097Z,3940.0
2018-12-13T07:55:01.091Z,4108.6
2018-12-13T07:56:01.575Z,4280.6
2018-12-13T07:57:01.228Z,4485.1
2018-12-13T07:58:01.091Z,4725.9
2018-12-13T07:59:01.127Z,4981.7
2018-12-13T08:00:01.089Z,5255.1
2018-12-13T08:01:01.951Z,5529.5
2018-12-13T08:02:01.229Z,5782.7
2018-12-13T08:03:01.092Z,5995.1
2018-12-13T08:04:01.094Z,6155.1
2018-12-13T08:05:01.116Z,6261.5
2018-12-13T08:06:01.089Z,6378.3
2018-12-13T08:07:01.228Z,6567.2
2018-12-13T08:08:01.092Z,6761.5
2018-12-13T08:09:01.090Z,6934.7
2018-12-13T08:10:01.120Z,7116.7
2018-12-13T08:11:01.057Z,7283.0
2018-12-13T08:12:01.255Z,7408.8
2018-12-13T08:13:01.090Z,7507.5
2018-12-13T08:14:01.089Z,7632.0
2018-12-13T08:15:06.103Z,7777.6
2018-12-13T08:16:01.093Z,7959.8
2018-12-13T08:17:01.229Z,8156.4
2018-12-13T08:18:01.094Z,8364.5
2018-12-13T08:19:01.095Z,8598.5
2018-12-13T08:20:01.125Z,8861.8
2018-12-13T08:21:01.097Z,9102.2
2018-12-13T08:22:01.241Z,9287.1
2018-12-13T08:23:01.099Z,9506.5
2018-12-13T08:24:01.097Z,9759.3
2018-12-13T08:25:06.106Z,10009.1
2018-12-13T08:26:01.164Z,10289.0
2018-12-13T08:27:01.240Z,10592.6
2018-12-13T08:28:01.931Z,10913.3
2018-12-13T08:29:01.100Z,11234.8
2018-12-13T08:30:06.107Z,11520.9
2018-12-13T08:31:01.094Z,11742.3
2018-12-13T08:32:01.242Z,11872.7
2018-12-13T08:33:01.101Z,11910.1
2018-12-13T08:34:01.095Z,11850.8
2018-12-13T08:35:02.450Z,11777.1
2018-12-13T08:36:01.098Z,11813.3
2018-12-13T08:37:01.239Z,11964.2
2018-12-13T08:38:01.104Z,12050.3
2018-12-13T08:39:01.167Z,12157.3
2018-12-13T08:41:01.209Z,12387.3
2018-12-13T08:42:01.225Z,12500.1
2018-12-13T08:43:01.079Z,12555.0
2018-12-13T08:44:01.049Z,12566.1
2018-12-13T08:45:01.129Z,12468.1
2018-12-13T08:46:01.088Z,12396.2
2018-12-13T08:47:01.226Z,12379.9
2018-12-13T08:48:01.084Z,12466.1
2018-12-13T08:49:01.092Z,12678.2
2018-12-13T08:50:01.121Z,13007.5
2018-12-13T08:51:01.087Z,13126.2
2018-12-13T08:52:01.239Z,12977.0
2018-12-13T08:53:01.087Z,12716.3
2018-12-13T08:54:01.087Z,12555.5
2018-12-13T08:55:01.089Z,12501.3
2018-12-13T08:56:01.089Z,12348.7
2018-12-13T08:57:01.630Z,12540.0
2018-12-13T08:58:01.086Z,12796.6
2018-12-13T08:59:01.094Z,12981.1
2018-12-13T09:00:01.140Z,13480.1
2018-12-13T09:01:01.090Z,13957.4
2018-12-13T09:02:01.228Z,14227.3
2018-12-13T09:03:01.057Z,14371.6
2018-12-13T09:04:01.088Z,14504.1
2018-12-13T09:05:01.129Z,14508.8
2018-12-13T09:06:01.090Z,14665.2
2018-12-13T09:07:01.231Z,14967.8
2018-12-13T09:08:01.091Z,15248.9
2018-12-13T09:09:01.089Z,15449.3
2018-12-13T09:10:01.088Z,15453.3
2018-12-13T09:11:01.056Z,15531.8
2018-12-13T09:12:01.320Z,15408.1
2018-12-13T09:13:01.096Z,15190.9
2018-12-13T09:14:01.093Z,14917.6
2018-12-13T09:15:01.087Z,14352.5
2018-12-13T09:16:01.090Z,13840.1
2018-12-13T09:17:01.317Z,13565.3
2018-12-13T09:18:01.092Z,13511.4
2018-12-13T09:19:01.099Z,13371.7
2018-12-13T09:20:01.061Z,13321.9
2018-12-13T09:21:01.089Z,13732.8
2018-12-13T09:22:01.239Z,14283.5
2018-12-13T09:23:01.090Z,14954.0
2018-12-13T09:24:01.092Z,15469.1
2018-12-13T09:25:01.093Z,15931.9
2018-12-13T09:26:02.015Z,16176.4
2018-12-13T09:27:01.227Z,16218.7
2018-12-13T09:28:01.058Z,16263.9
2018-12-13T09:29:01.097Z,16408.1
2018-12-13T09:30:01.090Z,16661.6
2018-12-13T09:31:01.058Z,17105.1
2018-12-13T09:32:01.239Z,17587.4
2018-12-13T09:33:01.095Z,17831.0
2018-12-13T09:34:01.058Z,18003.9
2018-12-13T09:35:01.126Z,18151.1
2018-12-13T09:36:01.063Z,18024.9
2018-12-13T09:37:01.295Z,18069.9
2018-12-13T09:38:01.094Z,18557.0
2018-12-13T09:39:01.146Z,19373.8
2018-12-13T09:40:01.121Z,20268.3
2018-12-13T09:41:01.100Z,21233.8
2018-12-13T09:42:01.242Z,22228.0
2018-12-13T09:43:01.097Z,23324.1
2018-12-13T09:44:01.122Z,24764.8
2018-12-13T09:45:01.135Z,26211.5
2018-12-13T09:46:01.097Z,27505.1
2018-12-13T09:47:01.239Z,28970.7
2018-12-13T09:48:01.103Z,30644.5
2018-12-13T09:49:01.102Z,32172.9
2018-12-13T09:50:01.131Z,33451.5
2018-12-13T09:51:01.099Z,34269.9
2018-12-13T09:52:02.073Z,34559.1
2018-12-13T09:53:01.100Z,34164.7
2018-12-13T09:54:01.097Z,33614.9
2018-12-13T09:55:06.127Z,32894.9
2018-12-13T09:56:01.100Z,32215.1
2018-12-13T09:57:01.239Z,31795.7
2018-12-13T09:58:01.102Z,31342.0
2018-12-13T09:59:01.111Z,30863.3
2018-12-13T10:00:06.105Z,30279.4
2018-12-13T10:02:01.353Z,29600.5
2018-12-13T10:03:01.054Z,28587.1
2018-12-13T10:04:01.083Z,27331.1
2018-12-13T10:05:01.085Z,26390.3
2018-12-13T10:06:01.088Z,25951.1
2018-12-13T10:07:01.234Z,25908.1
2018-12-13T10:08:01.092Z,26010.1
2018-12-13T10:09:01.059Z,26110.6
2018-12-13T10:10:01.056Z,26046.7
2018-12-13T10:11:01.060Z,26171.7
2018-12-13T10:12:01.263Z,26254.0
2018-12-13T10:13:01.092Z,26558.9
2018-12-13T10:14:01.059Z,27175.5
2018-12-13T10:15:01.129Z,26875.8
2018-12-13T10:16:01.094Z,26068.1
2018-12-13T10:17:01.255Z,24948.8
2018-12-13T10:18:01.056Z,23775.0
2018-12-13T10:19:01.092Z,22663.0
2018-12-13T10:20:01.128Z,21541.6
2018-12-13T10:21:01.169Z,20244.1
2018-12-13T10:22:01.233Z,19001.9
2018-12-13T10:23:01.063Z,18076.9
2018-12-13T10:24:01.092Z,17145.7
2018-12-13T10:25:01.125Z,16335.0
2018-12-13T10:26:02.133Z,15433.5
2018-12-13T10:27:01.234Z,14545.7
2018-12-13T10:28:01.092Z,13318.1
2018-12-13T10:29:01.103Z,11724.5
2018-12-13T10:30:01.139Z,10681.8
2018-12-13T10:31:01.101Z,10170.5
2018-12-13T10:32:01.238Z,9998.1
2018-12-13T10:33:01.100Z,9911.7
2018-12-13T10:34:01.102Z,9928.4
2018-12-13T10:35:01.134Z,9952.3
2018-12-13T10:36:01.097Z,9966.4
2018-12-13T10:37:01.246Z,10002.2
2018-12-13T10:38:01.099Z,9856.3
2018-12-13T10:39:01.067Z,9874.5
2018-12-13T10:40:01.136Z,9965.9
2018-12-13T10:41:01.097Z,10035.3
2018-12-13T10:42:01.306Z,10249.0
2018-12-13T10:43:02.198Z,10288.9
2018-12-13T10:44:01.099Z,10301.4
2018-12-13T10:45:01.127Z,10496.9
2018-12-13T10:46:01.099Z,10719.7
2018-12-13T10:47:01.243Z,10918.1
2018-12-13T10:48:01.100Z,11172.7
2018-12-13T10:49:01.097Z,11537.3
2018-12-13T10:50:01.140Z,11841.8
2018-12-13T10:51:01.098Z,11945.0
2018-12-13T10:52:01.303Z,11935.8
2018-12-13T10:54:01.096Z,11919.1
2018-12-13T10:55:06.093Z,11825.8
2018-12-13T10:56:01.115Z,11799.8
2018-12-13T10:57:01.084Z,12359.1
2018-12-13T10:58:01.224Z,12694.1
2018-12-13T10:59:01.087Z,13374.9
2018-12-13T11:00:02.158Z,13804.3
2018-12-13T11:01:06.090Z,13994.0
2018-12-13T11:02:01.093Z,14177.5
2018-12-13T11:03:01.234Z,14231.3
2018-12-13T11:04:01.085Z,14268.3
2018-12-13T11:05:01.092Z,14578.8
2018-12-13T11:06:06.090Z,15354.8
2018-12-13T11:07:01.088Z,16480.5
2018-12-13T11:08:01.258Z,17061.3
2018-12-13T11:09:01.088Z,17257.3
2018-12-13T11:10:01.089Z,17375.4
2018-12-13T11:11:01.126Z,17340.0
2018-12-13T11:12:01.091Z,16868.7
2018-12-13T11:13:01.229Z,16668.3
2018-12-13T11:14:01.087Z,16458.2
2018-12-13T11:15:01.090Z,16831.7
2018-12-13T11:16:06.099Z,17457.5
2018-12-13T11:17:01.090Z,18096.1
2018-12-13T11:18:01.234Z,18913.3
2018-12-13T11:19:01.092Z,19657.9
2018-12-13T11:20:01.090Z,19788.9
2018-12-13T11:21:06.088Z,19446.3
2018-12-13T11:22:01.056Z,19238.1
2018-12-13T11:23:01.295Z,20041.5
2018-12-13T11:24:01.088Z,21564.7
2018-12-13T11:25:01.089Z,22759.5
2018-12-13T11:26:06.088Z,23232.7
2018-12-13T11:27:01.096Z,23241.6
2018-12-13T11:28:01.231Z,22941.3
2018-12-13T11:29:01.090Z,22428.1
2018-12-13T11:30:01.370Z,21596.4
2018-12-13T11:31:06.090Z,20592.3
2018-12-13T11:32:01.098Z,19599.3
2018-12-13T11:33:01.232Z,18568.5
2018-12-13T11:34:01.099Z,17596.3
2018-12-13T11:35:01.093Z,16845.8
2018-12-13T11:36:01.093Z,16132.9
2018-12-13T11:37:01.058Z,15136.1
2018-12-13T11:38:01.360Z,13574.3
2018-12-13T11:39:05.692Z,11472.1
2018-12-13T11:40:01.096Z,9752.1
2018-12-13T11:41:01.095Z,8784.7
2018-12-13T11:42:01.355Z,8284.7
2018-12-13T11:43:01.540Z,8078.3
2018-12-13T11:44:01.097Z,8153.3
2018-12-13T11:45:01.097Z,8682.9
2018-12-13T11:46:01.095Z,9742.9
2018-12-13T11:47:01.069Z,10864.7
2018-12-13T11:48:01.248Z,12053.8
2018-12-13T11:49:01.104Z,13285.7
2018-12-13T11:50:01.096Z,14782.7
2018-12-13T11:51:01.099Z,16235.9
2018-12-13T11:52:01.099Z,17999.4
2018-12-13T11:53:01.245Z,20257.7
2018-12-13T11:54:06.109Z,22706.6
2018-12-13T11:55:01.099Z,25162.1
2018-12-13T11:56:01.104Z,27625.0
2018-12-13T11:57:01.098Z,30035.3
2018-12-13T11:58:01.246Z,32307.7
2018-12-13T11:59:01.126Z,34360.3
2018-12-13T12:00:01.111Z,35952.0
2018-12-13T12:01:01.100Z,36823.7
2018-12-13T12:02:01.098Z,37479.9
2018-12-13T12:03:01.305Z,37995.5
2018-12-13T12:04:06.101Z,38113.8
2018-12-13T12:05:01.103Z,37494.0
2018-12-13T12:06:01.102Z,36476.9
2018-12-13T12:07:01.102Z,35045.3
2018-12-13T12:08:01.276Z,33292.4
2018-12-13T12:09:01.139Z,31583.7
2018-12-13T12:11:01.211Z,30124.4
2018-12-13T12:12:01.109Z,28877.4
2018-12-13T12:13:01.230Z,28089.7
2018-12-13T12:14:01.095Z,27797.1
2018-12-13T12:15:01.223Z,27774.9
2018-12-13T12:16:01.051Z,27964.0
2018-12-13T12:17:01.119Z,28690.9
2018-12-13T12:18:01.298Z,29550.9
2018-12-13T12:19:01.082Z,30633.2
2018-12-13T12:20:01.083Z,32059.1
2018-12-13T12:21:01.057Z,33774.0
2018-12-13T12:22:01.123Z,35783.0
2018-12-13T12:23:01.304Z,37971.5
2018-12-13T12:24:01.056Z,40176.6
2018-12-13T12:25:01.059Z,42454.3
2018-12-13T12:26:01.091Z,44774.6
2018-12-13T12:27:01.127Z,46935.1
2018-12-13T12:28:01.295Z,48614.2
2018-12-13T12:29:01.059Z,49682.2
2018-12-13T12:30:01.058Z,50290.5
2018-12-13T12:31:01.092Z,50521.1
2018-12-13T12:32:01.124Z,50326.7
2018-12-13T12:33:01.231Z,49992.1
2018-12-13T12:34:01.091Z,49257.0
2018-12-13T12:35:01.089Z,48455.3
2018-12-13T12:36:01.090Z,47881.3
2018-12-13T12:37:01.127Z,47496.7
2018-12-13T12:38:01.235Z,47021.7
2018-12-13T12:39:01.094Z,46349.7
2018-12-13T12:40:01.097Z,45183.5
2018-12-13T12:41:01.094Z,43292.9
2018-12-13T12:42:02.007Z,40873.1
2018-12-13T12:43:01.239Z,38213.4
2018-12-13T12:44:01.099Z,35614.7
2018-12-13T12:45:01.097Z,33342.7
2018-12-13T12:46:02.184Z,31477.7
2018-12-13T12:47:06.099Z,30058.5
2018-12-13T12:48:01.246Z,28681.1
2018-12-13T12:49:01.096Z,27218.4
2018-12-13T12:50:01.096Z,25636.1
2018-12-13T12:51:01.074Z,24063.4
2018-12-13T12:52:01.128Z,22567.0
2018-12-13T12:53:01.238Z,21200.9
2018-12-13T12:54:01.146Z,19948.4
2018-12-13T12:55:01.100Z,19011.1
2018-12-13T12:56:01.097Z,18593.7
2018-12-13T12:57:06.103Z,18533.4
2018-12-13T12:58:01.250Z,18443.4
2018-12-13T12:59:01.096Z,18152.7
2018-12-13T13:00:01.097Z,17478.1
2018-12-13T13:01:01.067Z,16609.1
2018-12-13T13:02:01.133Z,15393.9
2018-12-13T13:04:01.084Z,14136.6
2018-12-13T13:05:01.090Z,13175.1
2018-12-13T13:06:01.087Z,12423.8
2018-12-13T13:07:01.083Z,11653.0
2018-12-13T13:08:01.322Z,10850.2
2018-12-13T13:09:01.084Z,9983.2
2018-12-13T13:10:01.088Z,9143.0
2018-12-13T13:11:01.086Z,8451.9
2018-12-13T13:12:01.086Z,7634.3
2018-12-13T13:13:01.254Z,6924.8
2018-12-13T13:14:01.086Z,6424.9
2018-12-13T13:15:01.085Z,6101.5
2018-12-13T13:16:01.083Z,5975.5
2018-12-13T13:17:01.084Z,5870.9
2018-12-13T13:18:01.235Z,5768.6
2018-12-13T13:19:01.094Z,5770.6
2018-12-13T13:20:02.311Z,5804.9
2018-12-13T13:21:01.087Z,5795.4
2018-12-13T13:22:01.093Z,5763.9
2018-12-13T13:23:01.329Z,5679.8
2018-12-13T13:24:01.088Z,5562.7
2018-12-13T13:25:01.089Z,5410.3
2018-12-13T13:26:01.054Z,5248.9
2018-12-13T13:27:01.090Z,5258.5
2018-12-13T13:28:01.268Z,5368.7
2018-12-13T13:29:01.088Z,5633.1
2018-12-13T13:30:01.092Z,6006.1
2018-12-13T13:31:01.091Z,6427.4
2018-12-13T13:32:01.058Z,6777.4
2018-12-13T13:33:01.262Z,7262.6
2018-12-13T13:34:01.061Z,7956.3
2018-12-13T13:35:01.095Z,8588.3
2018-12-13T13:36:01.056Z,9166.8
2018-12-13T13:37:01.152Z,9711.2
2018-12-13T13:38:01.267Z,10224.7
2018-12-13T13:39:01.091Z,10758.9
2018-12-13T13:40:01.131Z,11371.7
2018-12-13T13:41:01.088Z,12018.1
2018-12-13T13:42:01.088Z,12784.8
2018-12-13T13:43:01.269Z,13605.1
2018-12-13T13:44:01.059Z,14267.4
2018-12-13T13:45:02.343Z,14645.3
2018-12-13T13:46:01.058Z,14675.1
2018-12-13T13:47:01.091Z,14629.6
2018-12-13T13:48:01.271Z,14367.2
2018-12-13T13:49:01.091Z,13929.9
2018-12-13T13:50:01.097Z,13549.3
2018-12-13T13:51:01.094Z,13228.2
2018-12-13T13:52:01.091Z,12911.5
2018-12-13T13:53:01.751Z,12565.5
2018-12-13T13:54:01.061Z,12117.5
2018-12-13T13:55:01.094Z,11551.7
2018-12-13T13:56:01.091Z,10822.3
2018-12-13T13:57:01.092Z,9887.4
2018-12-13T13:58:01.240Z,8852.8
2018-12-13T13:59:06.100Z,7981.0
2018-12-13T14:00:01.094Z,7399.8
2018-12-13T14:01:01.096Z,7224.2
2018-12-13T14:02:02.185Z,7330.7
2018-12-13T14:03:01.231Z,7640.5
2018-12-13T14:04:01.119Z,8017.6
2018-12-13T14:05:01.095Z,8451.4
2018-12-13T14:06:01.107Z,8943.7
2018-12-13T14:07:01.095Z,9443.6
2018-12-13T14:08:01.269Z,9932.5
2018-12-13T14:09:01.096Z,10403.1
2018-12-13T14:10:06.093Z,10808.8
2018-12-13T14:11:01.097Z,11251.9
2018-12-13T14:12:01.102Z,11742.9
2018-12-13T14:14:01.222Z,12204.2
2018-12-13T14:15:01.085Z,12596.7
2018-12-13T14:16:01.082Z,12958.3
2018-12-13T14:17:01.088Z,13209.9
2018-12-13T14:18:01.107Z,13277.5
2018-12-13T14:19:01.227Z,13168.0
2018-12-13T14:20:01.084Z,12902.1
2018-12-13T14:21:01.081Z,12482.1
2018-12-13T14:22:01.081Z,11941.1
2018-12-13T14:23:01.087Z,11320.8
2018-12-13T14:24:01.226Z,10681.7
2018-12-13T14:25:01.090Z,10090.5
2018-12-13T14:26:01.090Z,9548.3
2018-12-13T14:27:01.128Z,8957.8
2018-12-13T14:28:01.087Z,8294.9
2018-12-13T14:29:01.227Z,7625.8
2018-12-13T14:30:01.084Z,6986.1
2018-12-13T14:31:06.087Z,6351.3
2018-12-13T14:32:01.090Z,5755.7
2018-12-13T14:33:01.087Z,5211.3
2018-12-13T14:34:01.294Z,4746.0
2018-12-13T14:35:01.087Z,4353.9
2018-12-13T14:36:06.270Z,4049.8
2018-12-13T14:37:01.057Z,3822.4
2018-12-13T14:38:01.089Z,3670.0
2018-12-13T14:39:01.235Z,3575.4
2018-12-13T14:40:01.093Z,3511.1
2018-12-13T14:41:01.089Z,3497.2
2018-12-13T14:42:06.100Z,3515.2
2018-12-13T14:43:01.063Z,3558.1
2018-12-13T14:44:01.233Z,3582.1
2018-12-13T14:45:01.061Z,3575.1
2018-12-13T14:46:01.124Z,3536.1
2018-12-13T14:47:01.059Z,3475.8
2018-12-13T14:48:01.092Z,3409.0
2018-12-13T14:49:01.234Z,3349.7
2018-12-13T14:50:01.093Z,3277.6
2018-12-13T14:51:01.125Z,3189.9
2018-12-13T14:52:01.091Z,3094.4
2018-12-13T14:53:01.097Z,3006.7
2018-12-13T14:54:01.238Z,2927.9
2018-12-13T14:55:01.184Z,2844.9
2018-12-13T14:56:01.134Z,2758.7
2018-12-13T14:57:01.093Z,2671.8
2018-12-13T14:58:01.094Z,2583.3
2018-12-13T14:59:01.241Z,2489.9
2018-12-13T15:00:01.104Z,2387.1
2018-12-13T15:01:01.128Z,2286.7
2018-12-13T15:02:01.067Z,2185.8
2018-12-13T15:03:01.065Z,2082.1
2018-12-13T15:04:01.290Z,1975.8
2018-12-13T15:05:01.099Z,1870.7
2018-12-13T15:06:01.100Z,1769.3
2018-12-13T15:07:01.099Z,1673.5
2018-12-13T15:08:01.067Z,1579.1
2018-12-13T15:09:01.342Z,1483.3
2018-12-13T15:10:01.098Z,1384.1
2018-12-13T15:12:01.213Z,1277.9
2018-12-13T15:13:01.050Z,1171.8
2018-12-13T15:14:01.220Z,1067.6
2018-12-13T15:15:01.085Z,967.8
2018-12-13T15:16:01.082Z,878.9
2018-12-13T15:17:01.051Z,790.9
2018-12-13T15:18:01.084Z,706.3
2018-12-13T15:19:01.229Z,626.6
2018-12-13T15:20:06.084Z,553.2
2018-12-13T15:21:01.081Z,486.7
2018-12-13T15:22:01.083Z,426.4
2018-12-13T15:23:01.086Z,372.3
2018-12-13T15:24:01.224Z,324.0
2018-12-13T15:25:01.084Z,279.8
2018-12-13T15:26:01.130Z,239.7
2018-12-13T15:27:01.089Z,208.5
2018-12-13T15:28:01.111Z,181.0
2018-12-13T15:29:01.258Z,157.7
2018-12-13T15:30:01.091Z,139.2
2018-12-13T15:31:01.086Z,124.2
2018-12-13T15:32:01.092Z,111.3
2018-12-13T15:33:01.090Z,100.0
2018-12-13T15:34:01.325Z,89.4
2018-12-13T15:35:01.088Z,79.4
2018-12-13T15:36:01.058Z,69.6
2018-12-13T15:37:01.095Z,60.3
2018-12-13T15:38:01.093Z,51.9
2018-12-13T15:39:01.273Z,44.2
2018-12-13T15:40:01.094Z,37.5
2018-12-13T15:41:01.092Z,31.7
2018-12-13T15:42:01.093Z,26.7
2018-12-13T15:43:01.091Z,22.3
2018-12-13T15:44:01.232Z,18.4
2018-12-13T15:45:01.092Z,15.2
2018-12-13T15:46:01.092Z,13.1
2018-12-13T15:47:01.094Z,11.5
2018-12-13T15:48:01.062Z,9.9
2018-12-13T15:49:02.187Z,8.7
2018-12-13T15:50:01.094Z,7.7
2018-12-13T15:51:01.093Z,6.9
2018-12-13T15:52:01.098Z,6.3
2018-12-13T15:53:01.096Z,5.7
2018-12-13T15:54:01.237Z,5.1
2018-12-13T15:55:01.097Z,4.5
2018-12-13T15:56:01.097Z,4.0
2018-12-13T15:57:01.096Z,3.5
2018-12-13T15:58:01.096Z,3.0
2018-12-13T15:59:01.238Z,2.6
2018-12-13T16:00:01.099Z,2.3
2018-12-13T16:01:01.097Z,1.9
2018-12-13T16:02:01.098Z,1.7
2018-12-13T16:03:01.099Z,1.5
2018-12-13T16:04:01.296Z,1.3
2018-12-13T16:05:01.099Z,1.1
2018-12-13T16:06:01.100Z,0.9
2018-12-13T16:07:01.099Z,0.8
2018-12-13T16:08:01.067Z,0.7
2018-12-13T16:09:01.333Z,0.6
2018-12-13T16:10:03.922Z,0.5
2018-12-13T16:13:01.150Z,0.4
2018-12-13T16:14:01.242Z,0.3
2018-12-13T16:15:06.085Z,0.3
2018-12-13T16:16:01.125Z,0.2
2018-12-13T16:17:01.090Z,0.1
